sensor_id;sensor_type;location;lat;lon;timestamp;temperature;humidity
17333;DHT22;8784;50.94667800;7.08448400;2023-05-10T00:01:20;14.70;99.90
17333;DHT22;8784;50.94667800;7.08448400;2023-05-10T00:03:47;14.70;99.90
17333;DHT22;8784;50.94667800;7.08448400;2023-05-10T00:06:15;14.70;99.90
17333;DHT22;8784;50.94667800;7.08448400;2023-05-10T00:08:42;14.70;99.90
17333;DHT22;8784;50.94667800;7.08448400;2023-05-10T00:11:09;14.70;99.90
17333;DHT22;8784;50.94667800;7.08448400;2023-05-10T00:13:36;14.70;99.90
17333;DHT22;8784;50.94667800;7.08448400;2023-05-10T00:16:03;14.80;99.90
17333;DHT22;8784;50.94667800;7.08448400;2023-05-10T00:18:29;14.80;99.90
17333;DHT22;8784;50.94667800;7.08448400;2023-05-10T00:20:59;14.80;99.90
17333;DHT22;8784;50.94667800;7.08448400;2023-05-10T00:23:27;14.80;99.90
17333;DHT22;8784;50.94667800;7.08448400;2023-05-10T00:25:53;14.80;99.90
17333;DHT22;8784;50.94667800;7.08448400;2023-05-10T00:28:20;14.80;99.90
17333;DHT22;8784;50.94667800;7.08448400;2023-05-10T00:30:47;14.80;99.90
17333;DHT22;8784;50.94667800;7.08448400;2023-05-10T00:33:14;14.80;99.90
17333;DHT22;8784;50.94667800;7.08448400;2023-05-10T00:35:41;14.80;99.90
17333;DHT22;8784;50.94667800;7.08448400;2023-05-10T00:38:08;14.70;99.90
17333;DHT22;8784;50.94667800;7.08448400;2023-05-10T00:40:37;14.80;99.90
17333;DHT22;8784;50.94667800;7.08448400;2023-05-10T00:43:04;14.80;99.90
17333;DHT22;8784;50.94667800;7.08448400;2023-05-10T00:45:32;14.80;99.90
17333;DHT22;8784;50.94667800;7.08448400;2023-05-10T00:48:01;14.80;99.90
17333;DHT22;8784;50.94667800;7.08448400;2023-05-10T00:50:29;14.80;99.90
17333;DHT22;8784;50.94667800;7.08448400;2023-05-10T00:52:56;14.80;99.90
17333;DHT22;8784;50.94667800;7.08448400;2023-05-10T00:55:23;14.70;99.90
17333;DHT22;8784;50.94667800;7.08448400;2023-05-10T00:57:52;14.70;99.90
17333;DHT22;8784;50.94667800;7.08448400;2023-05-10T01:00:20;14.70;99.90
17333;DHT22;8784;50.94667800;7.08448400;2023-05-10T01:02:47;14.70;99.90
17333;DHT22;8784;50.94667800;7.08448400;2023-05-10T01:05:15;14.70;99.90
17333;DHT22;8784;50.94667800;7.08448400;2023-05-10T01:07:41;14.70;99.90
17333;DHT22;8784;50.94667800;7.08448400;2023-05-10T01:10:09;14.70;99.90
17333;DHT22;8784;50.94667800;7.08448400;2023-05-10T01:12:38;14.80;99.90
17333;DHT22;8784;50.94667800;7.08448400;2023-05-10T01:15:08;14.80;99.90
17333;DHT22;8784;50.94667800;7.08448400;2023-05-10T01:17:38;14.80;99.90
17333;DHT22;8784;50.94667800;7.08448400;2023-05-10T01:20:07;14.80;99.90
17333;DHT22;8784;50.94667800;7.08448400;2023-05-10T01:23:03;14.80;99.90
17333;DHT22;8784;50.94667800;7.08448400;2023-05-10T01:25:43;14.80;99.90
17333;DHT22;8784;50.94667800;7.08448400;2023-05-10T01:28:34;14.80;99.90
17333;DHT22;8784;50.94667800;7.08448400;2023-05-10T01:31:18;14.70;99.90
17333;DHT22;8784;50.94667800;7.08448400;2023-05-10T01:33:54;14.70;99.90
17333;DHT22;8784;50.94667800;7.08448400;2023-05-10T01:36:28;14.70;99.90
17333;DHT22;8784;50.94667800;7.08448400;2023-05-10T01:39:01;14.70;99.90
17333;DHT22;8784;50.94667800;7.08448400;2023-05-10T01:41:35;14.70;99.90
17333;DHT22;8784;50.94667800;7.08448400;2023-05-10T01:44:14;14.70;99.90
17333;DHT22;8784;50.94667800;7.08448400;2023-05-10T01:46:43;14.70;99.90
17333;DHT22;8784;50.94667800;7.08448400;2023-05-10T01:49:19;14.70;99.90
17333;DHT22;8784;50.94667800;7.08448400;2023-05-10T01:51:50;14.70;99.90
17333;DHT22;8784;50.94667800;7.08448400;2023-05-10T01:54:20;14.80;99.90
17333;DHT22;8784;50.94667800;7.08448400;2023-05-10T01:56:50;14.70;99.90
17333;DHT22;8784;50.94667800;7.08448400;2023-05-10T01:59:19;14.80;99.90
17333;DHT22;8784;50.94667800;7.08448400;2023-05-10T02:01:47;14.80;99.90
17333;DHT22;8784;50.94667800;7.08448400;2023-05-10T02:04:17;14.80;99.90
17333;DHT22;8784;50.94667800;7.08448400;2023-05-10T02:06:46;14.80;99.90
17333;DHT22;8784;50.94667800;7.08448400;2023-05-10T02:09:14;14.80;99.90
17333;DHT22;8784;50.94667800;7.08448400;2023-05-10T02:11:43;14.80;99.90
17333;DHT22;8784;50.94667800;7.08448400;2023-05-10T02:14:11;14.80;99.90
17333;DHT22;8784;50.94667800;7.08448400;2023-05-10T02:16:39;14.80;99.90
17333;DHT22;8784;50.94667800;7.08448400;2023-05-10T02:19:07;14.80;99.90
17333;DHT22;8784;50.94667800;7.08448400;2023-05-10T02:21:37;14.80;99.90
17333;DHT22;8784;50.94667800;7.08448400;2023-05-10T02:24:06;14.80;99.90
17333;DHT22;8784;50.94667800;7.08448400;2023-05-10T02:26:35;14.70;99.90
17333;DHT22;8784;50.94667800;7.08448400;2023-05-10T02:29:03;14.60;99.90
17333;DHT22;8784;50.94667800;7.08448400;2023-05-10T02:31:31;14.60;99.90
17333;DHT22;8784;50.94667800;7.08448400;2023-05-10T02:33:59;14.60;99.90
17333;DHT22;8784;50.94667800;7.08448400;2023-05-10T02:36:27;14.50;99.90
17333;DHT22;8784;50.94667800;7.08448400;2023-05-10T02:38:56;14.50;99.90
17333;DHT22;8784;50.94667800;7.08448400;2023-05-10T02:41:25;14.50;99.90
17333;DHT22;8784;50.94667800;7.08448400;2023-05-10T02:43:56;14.50;99.90
17333;DHT22;8784;50.94667800;7.08448400;2023-05-10T02:46:23;14.50;99.90
17333;DHT22;8784;50.94667800;7.08448400;2023-05-10T02:48:51;14.50;99.90
17333;DHT22;8784;50.94667800;7.08448400;2023-05-10T02:51:19;14.50;99.90
17333;DHT22;8784;50.94667800;7.08448400;2023-05-10T02:53:53;14.60;99.90
17333;DHT22;8784;50.94667800;7.08448400;2023-05-10T02:56:29;14.50;99.90
17333;DHT22;8784;50.94667800;7.08448400;2023-05-10T02:58:58;14.50;99.90
17333;DHT22;8784;50.94667800;7.08448400;2023-05-10T03:01:25;14.50;99.90
17333;DHT22;8784;50.94667800;7.08448400;2023-05-10T03:03:51;14.60;99.90
17333;DHT22;8784;50.94667800;7.08448400;2023-05-10T03:06:18;14.50;99.90
17333;DHT22;8784;50.94667800;7.08448400;2023-05-10T03:08:45;14.50;99.90
17333;DHT22;8784;50.94667800;7.08448400;2023-05-10T03:11:28;14.50;99.90
17333;DHT22;8784;50.94667800;7.08448400;2023-05-10T03:14:08;14.60;99.90
17333;DHT22;8784;50.94667800;7.08448400;2023-05-10T03:16:52;14.50;99.90
17333;DHT22;8784;50.94667800;7.08448400;2023-05-10T03:19:26;14.50;99.90
17333;DHT22;8784;50.94667800;7.08448400;2023-05-10T03:21:56;14.50;99.90
17333;DHT22;8784;50.94667800;7.08448400;2023-05-10T03:24:27;14.50;99.90
17333;DHT22;8784;50.94667800;7.08448400;2023-05-10T03:26:58;14.50;99.90
17333;DHT22;8784;50.94667800;7.08448400;2023-05-10T03:29:29;14.50;99.90
17333;DHT22;8784;50.94667800;7.08448400;2023-05-10T03:31:57;14.50;99.90
17333;DHT22;8784;50.94667800;7.08448400;2023-05-10T03:34:25;14.50;99.90
17333;DHT22;8784;50.94667800;7.08448400;2023-05-10T03:36:52;14.50;99.90
17333;DHT22;8784;50.94667800;7.08448400;2023-05-10T03:39:19;14.60;99.90
17333;DHT22;8784;50.94667800;7.08448400;2023-05-10T03:41:46;14.60;99.90
17333;DHT22;8784;50.94667800;7.08448400;2023-05-10T03:44:14;14.60;99.90
17333;DHT22;8784;50.94667800;7.08448400;2023-05-10T03:46:41;14.60;99.90
17333;DHT22;8784;50.94667800;7.08448400;2023-05-10T03:49:08;14.60;99.90
17333;DHT22;8784;50.94667800;7.08448400;2023-05-10T03:51:35;14.60;99.90
17333;DHT22;8784;50.94667800;7.08448400;2023-05-10T03:54:02;14.60;99.90
17333;DHT22;8784;50.94667800;7.08448400;2023-05-10T03:56:29;14.60;99.90
17333;DHT22;8784;50.94667800;7.08448400;2023-05-10T03:58:55;14.60;99.90
17333;DHT22;8784;50.94667800;7.08448400;2023-05-10T04:01:24;14.60;99.90
17333;DHT22;8784;50.94667800;7.08448400;2023-05-10T04:03:51;14.60;99.90
17333;DHT22;8784;50.94667800;7.08448400;2023-05-10T04:06:17;14.60;99.90
17333;DHT22;8784;50.94667800;7.08448400;2023-05-10T04:08:44;14.60;99.90
17333;DHT22;8784;50.94667800;7.08448400;2023-05-10T04:11:12;14.60;99.90
17333;DHT22;8784;50.94667800;7.08448400;2023-05-10T04:13:39;14.60;99.90
17333;DHT22;8784;50.94667800;7.08448400;2023-05-10T04:16:06;14.60;99.90
17333;DHT22;8784;50.94667800;7.08448400;2023-05-10T04:18:35;14.60;99.90
17333;DHT22;8784;50.94667800;7.08448400;2023-05-10T04:21:10;14.60;99.90
17333;DHT22;8784;50.94667800;7.08448400;2023-05-10T04:23:37;14.60;99.90
17333;DHT22;8784;50.94667800;7.08448400;2023-05-10T04:26:04;14.60;99.90
17333;DHT22;8784;50.94667800;7.08448400;2023-05-10T04:28:31;14.70;99.90
17333;DHT22;8784;50.94667800;7.08448400;2023-05-10T04:31:01;14.60;99.90
17333;DHT22;8784;50.94667800;7.08448400;2023-05-10T04:33:29;14.70;99.90
17333;DHT22;8784;50.94667800;7.08448400;2023-05-10T04:35:57;14.70;99.90
17333;DHT22;8784;50.94667800;7.08448400;2023-05-10T04:38:24;14.60;99.90
17333;DHT22;8784;50.94667800;7.08448400;2023-05-10T04:40:52;14.60;99.90
17333;DHT22;8784;50.94667800;7.08448400;2023-05-10T04:43:19;14.60;99.90
17333;DHT22;8784;50.94667800;7.08448400;2023-05-10T04:45:46;14.60;99.90
17333;DHT22;8784;50.94667800;7.08448400;2023-05-10T04:48:12;14.60;99.90
17333;DHT22;8784;50.94667800;7.08448400;2023-05-10T04:50:39;14.50;99.90
17333;DHT22;8784;50.94667800;7.08448400;2023-05-10T04:53:07;14.50;99.90
17333;DHT22;8784;50.94667800;7.08448400;2023-05-10T04:55:34;14.60;99.90
17333;DHT22;8784;50.94667800;7.08448400;2023-05-10T04:58:02;14.60;99.90
17333;DHT22;8784;50.94667800;7.08448400;2023-05-10T05:00:29;14.60;99.90
17333;DHT22;8784;50.94667800;7.08448400;2023-05-10T05:02:56;14.50;99.90
17333;DHT22;8784;50.94667800;7.08448400;2023-05-10T05:05:23;14.60;99.90
17333;DHT22;8784;50.94667800;7.08448400;2023-05-10T05:07:50;14.60;99.90
17333;DHT22;8784;50.94667800;7.08448400;2023-05-10T05:10:18;14.60;99.90
17333;DHT22;8784;50.94667800;7.08448400;2023-05-10T05:12:46;14.60;99.90
17333;DHT22;8784;50.94667800;7.08448400;2023-05-10T05:15:13;14.60;99.90
17333;DHT22;8784;50.94667800;7.08448400;2023-05-10T05:17:41;14.70;99.90
17333;DHT22;8784;50.94667800;7.08448400;2023-05-10T05:20:10;14.70;99.90
17333;DHT22;8784;50.94667800;7.08448400;2023-05-10T05:22:37;14.70;99.90
17333;DHT22;8784;50.94667800;7.08448400;2023-05-10T05:25:04;14.80;99.90
17333;DHT22;8784;50.94667800;7.08448400;2023-05-10T05:27:33;14.80;99.90
17333;DHT22;8784;50.94667800;7.08448400;2023-05-10T05:30:00;14.80;99.90
17333;DHT22;8784;50.94667800;7.08448400;2023-05-10T05:32:27;14.80;99.90
17333;DHT22;8784;50.94667800;7.08448400;2023-05-10T05:34:53;14.80;99.90
17333;DHT22;8784;50.94667800;7.08448400;2023-05-10T05:37:21;14.90;99.90
17333;DHT22;8784;50.94667800;7.08448400;2023-05-10T05:39:48;14.90;99.90
17333;DHT22;8784;50.94667800;7.08448400;2023-05-10T05:42:15;14.90;99.90
17333;DHT22;8784;50.94667800;7.08448400;2023-05-10T05:44:45;15.00;99.90
17333;DHT22;8784;50.94667800;7.08448400;2023-05-10T05:47:12;15.00;99.90
17333;DHT22;8784;50.94667800;7.08448400;2023-05-10T05:49:39;15.10;99.90
17333;DHT22;8784;50.94667800;7.08448400;2023-05-10T05:52:05;15.10;99.90
17333;DHT22;8784;50.94667800;7.08448400;2023-05-10T05:54:32;15.20;99.90
17333;DHT22;8784;50.94667800;7.08448400;2023-05-10T05:57:00;15.20;99.90
17333;DHT22;8784;50.94667800;7.08448400;2023-05-10T05:59:27;15.10;99.90
17333;DHT22;8784;50.94667800;7.08448400;2023-05-10T06:01:55;15.20;99.90
17333;DHT22;8784;50.94667800;7.08448400;2023-05-10T06:04:22;15.10;99.90
17333;DHT22;8784;50.94667800;7.08448400;2023-05-10T06:06:49;15.20;99.90
17333;DHT22;8784;50.94667800;7.08448400;2023-05-10T06:09:16;15.20;99.90
17333;DHT22;8784;50.94667800;7.08448400;2023-05-10T06:11:43;15.20;99.90
17333;DHT22;8784;50.94667800;7.08448400;2023-05-10T06:14:09;15.20;99.90
17333;DHT22;8784;50.94667800;7.08448400;2023-05-10T06:16:37;15.20;99.90
17333;DHT22;8784;50.94667800;7.08448400;2023-05-10T06:19:05;15.20;99.90
17333;DHT22;8784;50.94667800;7.08448400;2023-05-10T06:21:32;15.20;99.90
17333;DHT22;8784;50.94667800;7.08448400;2023-05-10T06:23:59;15.20;99.90
17333;DHT22;8784;50.94667800;7.08448400;2023-05-10T06:26:25;15.20;99.90
17333;DHT22;8784;50.94667800;7.08448400;2023-05-10T06:28:52;15.20;99.90
17333;DHT22;8784;50.94667800;7.08448400;2023-05-10T06:31:19;15.20;99.90
17333;DHT22;8784;50.94667800;7.08448400;2023-05-10T06:33:46;15.20;99.90
17333;DHT22;8784;50.94667800;7.08448400;2023-05-10T06:36:14;15.30;99.90
17333;DHT22;8784;50.94667800;7.08448400;2023-05-10T06:38:41;15.30;99.90
17333;DHT22;8784;50.94667800;7.08448400;2023-05-10T06:41:08;15.20;99.90
17333;DHT22;8784;50.94667800;7.08448400;2023-05-10T06:43:35;15.30;99.90
17333;DHT22;8784;50.94667800;7.08448400;2023-05-10T06:46:05;15.30;99.90
17333;DHT22;8784;50.94667800;7.08448400;2023-05-10T06:48:32;15.30;99.90
17333;DHT22;8784;50.94667800;7.08448400;2023-05-10T06:50:59;15.30;99.90
17333;DHT22;8784;50.94667800;7.08448400;2023-05-10T06:53:27;15.30;99.90
17333;DHT22;8784;50.94667800;7.08448400;2023-05-10T06:55:54;15.20;99.90
17333;DHT22;8784;50.94667800;7.08448400;2023-05-10T06:58:21;15.20;99.90
17333;DHT22;8784;50.94667800;7.08448400;2023-05-10T07:00:48;15.20;99.90
17333;DHT22;8784;50.94667800;7.08448400;2023-05-10T07:03:15;15.20;99.90
17333;DHT22;8784;50.94667800;7.08448400;2023-05-10T07:05:41;15.20;99.90
17333;DHT22;8784;50.94667800;7.08448400;2023-05-10T07:08:08;15.10;99.90
17333;DHT22;8784;50.94667800;7.08448400;2023-05-10T07:10:37;15.10;99.90
17333;DHT22;8784;50.94667800;7.08448400;2023-05-10T07:13:04;15.10;99.90
17333;DHT22;8784;50.94667800;7.08448400;2023-05-10T07:15:30;15.20;99.90
17333;DHT22;8784;50.94667800;7.08448400;2023-05-10T07:17:58;15.20;99.90
17333;DHT22;8784;50.94667800;7.08448400;2023-05-10T07:20:25;15.20;99.90
17333;DHT22;8784;50.94667800;7.08448400;2023-05-10T07:22:52;15.30;99.90
17333;DHT22;8784;50.94667800;7.08448400;2023-05-10T07:25:19;15.30;99.90
17333;DHT22;8784;50.94667800;7.08448400;2023-05-10T07:27:47;15.30;99.90
17333;DHT22;8784;50.94667800;7.08448400;2023-05-10T07:30:15;15.30;99.90
17333;DHT22;8784;50.94667800;7.08448400;2023-05-10T07:32:41;15.30;99.90
17333;DHT22;8784;50.94667800;7.08448400;2023-05-10T07:38:31;15.30;99.90
17333;DHT22;8784;50.94667800;7.08448400;2023-05-10T07:40:57;15.20;99.90
17333;DHT22;8784;50.94667800;7.08448400;2023-05-10T07:43:26;15.20;99.90
17333;DHT22;8784;50.94667800;7.08448400;2023-05-10T07:45:53;15.20;99.90
17333;DHT22;8784;50.94667800;7.08448400;2023-05-10T07:48:20;15.20;99.90
17333;DHT22;8784;50.94667800;7.08448400;2023-05-10T07:50:46;15.10;99.90
17333;DHT22;8784;50.94667800;7.08448400;2023-05-10T07:53:13;15.10;99.90
17333;DHT22;8784;50.94667800;7.08448400;2023-05-10T07:55:40;15.10;99.90
17333;DHT22;8784;50.94667800;7.08448400;2023-05-10T07:58:07;15.20;99.90
17333;DHT22;8784;50.94667800;7.08448400;2023-05-10T08:00:36;15.20;99.90
17333;DHT22;8784;50.94667800;7.08448400;2023-05-10T08:03:05;15.30;99.90
17333;DHT22;8784;50.94667800;7.08448400;2023-05-10T08:05:32;15.30;99.90
17333;DHT22;8784;50.94667800;7.08448400;2023-05-10T08:07:59;15.30;99.90
17333;DHT22;8784;50.94667800;7.08448400;2023-05-10T08:10:26;15.30;99.90
17333;DHT22;8784;50.94667800;7.08448400;2023-05-10T08:12:53;15.20;99.90
17333;DHT22;8784;50.94667800;7.08448400;2023-05-10T08:15:20;15.30;99.90
17333;DHT22;8784;50.94667800;7.08448400;2023-05-10T08:17:48;15.20;99.90
17333;DHT22;8784;50.94667800;7.08448400;2023-05-10T08:20:15;15.10;99.90
17333;DHT22;8784;50.94667800;7.08448400;2023-05-10T08:22:45;15.10;99.90
17333;DHT22;8784;50.94667800;7.08448400;2023-05-10T08:25:12;15.10;99.90
17333;DHT22;8784;50.94667800;7.08448400;2023-05-10T08:27:39;15.20;99.90
17333;DHT22;8784;50.94667800;7.08448400;2023-05-10T08:30:07;15.30;99.90
17333;DHT22;8784;50.94667800;7.08448400;2023-05-10T08:32:34;15.40;99.90
17333;DHT22;8784;50.94667800;7.08448400;2023-05-10T08:35:05;15.40;99.90
17333;DHT22;8784;50.94667800;7.08448400;2023-05-10T08:37:32;15.50;99.90
17333;DHT22;8784;50.94667800;7.08448400;2023-05-10T08:39:59;15.70;99.90
17333;DHT22;8784;50.94667800;7.08448400;2023-05-10T08:42:28;15.90;99.90
17333;DHT22;8784;50.94667800;7.08448400;2023-05-10T08:44:57;16.00;99.90
17333;DHT22;8784;50.94667800;7.08448400;2023-05-10T08:47:25;16.10;99.90
17333;DHT22;8784;50.94667800;7.08448400;2023-05-10T08:49:53;16.20;99.90
17333;DHT22;8784;50.94667800;7.08448400;2023-05-10T08:52:23;16.30;99.90
17333;DHT22;8784;50.94667800;7.08448400;2023-05-10T08:54:51;16.30;99.90
17333;DHT22;8784;50.94667800;7.08448400;2023-05-10T08:57:19;16.20;99.90
17333;DHT22;8784;50.94667800;7.08448400;2023-05-10T08:59:46;16.20;99.90
17333;DHT22;8784;50.94667800;7.08448400;2023-05-10T09:02:14;16.10;99.90
17333;DHT22;8784;50.94667800;7.08448400;2023-05-10T09:04:41;16.00;99.90
17333;DHT22;8784;50.94667800;7.08448400;2023-05-10T09:07:08;15.90;99.90
17333;DHT22;8784;50.94667800;7.08448400;2023-05-10T09:09:36;15.90;99.90
17333;DHT22;8784;50.94667800;7.08448400;2023-05-10T09:12:04;15.80;99.90
17333;DHT22;8784;50.94667800;7.08448400;2023-05-10T09:14:34;15.80;99.90
17333;DHT22;8784;50.94667800;7.08448400;2023-05-10T09:17:02;15.70;99.90
17333;DHT22;8784;50.94667800;7.08448400;2023-05-10T09:19:29;15.70;99.90
17333;DHT22;8784;50.94667800;7.08448400;2023-05-10T09:21:55;15.60;99.90
17333;DHT22;8784;50.94667800;7.08448400;2023-05-10T09:24:25;15.60;99.90
17333;DHT22;8784;50.94667800;7.08448400;2023-05-10T09:26:57;15.60;99.90
17333;DHT22;8784;50.94667800;7.08448400;2023-05-10T09:29:24;15.60;99.90
17333;DHT22;8784;50.94667800;7.08448400;2023-05-10T09:31:51;15.50;99.90
17333;DHT22;8784;50.94667800;7.08448400;2023-05-10T09:34:21;15.60;99.90
17333;DHT22;8784;50.94667800;7.08448400;2023-05-10T09:36:56;15.60;99.90
17333;DHT22;8784;50.94667800;7.08448400;2023-05-10T09:39:30;15.70;99.90
17333;DHT22;8784;50.94667800;7.08448400;2023-05-10T09:42:01;15.60;99.90
17333;DHT22;8784;50.94667800;7.08448400;2023-05-10T09:44:29;15.60;99.90
17333;DHT22;8784;50.94667800;7.08448400;2023-05-10T09:46:57;15.50;99.90
17333;DHT22;8784;50.94667800;7.08448400;2023-05-10T09:49:24;15.60;99.90
17333;DHT22;8784;50.94667800;7.08448400;2023-05-10T09:52:02;15.70;99.90
17333;DHT22;8784;50.94667800;7.08448400;2023-05-10T09:54:29;15.80;99.90
17333;DHT22;8784;50.94667800;7.08448400;2023-05-10T09:56:56;15.90;99.90
17333;DHT22;8784;50.94667800;7.08448400;2023-05-10T09:59:26;16.00;99.90
17333;DHT22;8784;50.94667800;7.08448400;2023-05-10T10:01:55;16.10;99.90
17333;DHT22;8784;50.94667800;7.08448400;2023-05-10T10:04:23;16.00;99.90
17333;DHT22;8784;50.94667800;7.08448400;2023-05-10T10:06:59;16.00;99.90
17333;DHT22;8784;50.94667800;7.08448400;2023-05-10T10:09:27;16.00;99.90
17333;DHT22;8784;50.94667800;7.08448400;2023-05-10T10:11:54;15.90;99.90
17333;DHT22;8784;50.94667800;7.08448400;2023-05-10T10:14:22;15.90;99.90
17333;DHT22;8784;50.94667800;7.08448400;2023-05-10T10:16:51;15.80;99.90
17333;DHT22;8784;50.94667800;7.08448400;2023-05-10T10:19:18;15.70;99.90
17333;DHT22;8784;50.94667800;7.08448400;2023-05-10T10:21:46;15.60;99.90
17333;DHT22;8784;50.94667800;7.08448400;2023-05-10T10:24:12;15.60;99.90
17333;DHT22;8784;50.94667800;7.08448400;2023-05-10T10:26:41;15.60;99.90
17333;DHT22;8784;50.94667800;7.08448400;2023-05-10T10:29:18;15.60;99.90
17333;DHT22;8784;50.94667800;7.08448400;2023-05-10T10:31:48;15.60;99.90
17333;DHT22;8784;50.94667800;7.08448400;2023-05-10T10:34:26;15.70;99.90
17333;DHT22;8784;50.94667800;7.08448400;2023-05-10T10:36:56;15.60;99.90
17333;DHT22;8784;50.94667800;7.08448400;2023-05-10T10:39:23;15.70;99.90
17333;DHT22;8784;50.94667800;7.08448400;2023-05-10T10:41:52;15.80;99.90
17333;DHT22;8784;50.94667800;7.08448400;2023-05-10T10:44:24;16.10;99.90
17333;DHT22;8784;50.94667800;7.08448400;2023-05-10T10:47:22;16.50;99.90
17333;DHT22;8784;50.94667800;7.08448400;2023-05-10T10:50:06;16.90;99.90
17333;DHT22;8784;50.94667800;7.08448400;2023-05-10T10:52:35;17.20;99.90
17333;DHT22;8784;50.94667800;7.08448400;2023-05-10T10:55:03;17.50;99.90
17333;DHT22;8784;50.94667800;7.08448400;2023-05-10T10:57:34;18.00;99.90
17333;DHT22;8784;50.94667800;7.08448400;2023-05-10T11:00:19;18.50;99.90
17333;DHT22;8784;50.94667800;7.08448400;2023-05-10T11:02:47;18.90;99.90
17333;DHT22;8784;50.94667800;7.08448400;2023-05-10T11:05:35;19.10;99.90
17333;DHT22;8784;50.94667800;7.08448400;2023-05-10T11:08:18;19.30;99.90
17333;DHT22;8784;50.94667800;7.08448400;2023-05-10T11:11:02;19.30;99.90
17333;DHT22;8784;50.94667800;7.08448400;2023-05-10T11:13:34;19.30;99.90
17333;DHT22;8784;50.94667800;7.08448400;2023-05-10T11:16:12;19.50;99.90
17333;DHT22;8784;50.94667800;7.08448400;2023-05-10T11:18:39;19.70;99.90
17333;DHT22;8784;50.94667800;7.08448400;2023-05-10T11:21:09;20.00;99.90
17333;DHT22;8784;50.94667800;7.08448400;2023-05-10T11:23:49;20.40;99.90
17333;DHT22;8784;50.94667800;7.08448400;2023-05-10T11:26:16;20.80;99.90
17333;DHT22;8784;50.94667800;7.08448400;2023-05-10T11:28:44;21.00;99.90
17333;DHT22;8784;50.94667800;7.08448400;2023-05-10T11:31:13;21.20;99.90
17333;DHT22;8784;50.94667800;7.08448400;2023-05-10T11:33:43;21.30;99.90
17333;DHT22;8784;50.94667800;7.08448400;2023-05-10T11:36:14;21.10;99.90
17333;DHT22;8784;50.94667800;7.08448400;2023-05-10T11:38:41;20.90;99.90
17333;DHT22;8784;50.94667800;7.08448400;2023-05-10T11:41:09;20.50;99.90
17333;DHT22;8784;50.94667800;7.08448400;2023-05-10T11:43:37;20.20;99.90
17333;DHT22;8784;50.94667800;7.08448400;2023-05-10T11:46:05;20.00;99.90
17333;DHT22;8784;50.94667800;7.08448400;2023-05-10T11:48:32;19.90;99.90
17333;DHT22;8784;50.94667800;7.08448400;2023-05-10T11:51:00;20.00;99.90
17333;DHT22;8784;50.94667800;7.08448400;2023-05-10T11:53:32;20.10;99.90
17333;DHT22;8784;50.94667800;7.08448400;2023-05-10T11:56:05;20.30;99.90
17333;DHT22;8784;50.94667800;7.08448400;2023-05-10T11:58:33;20.50;99.90
17333;DHT22;8784;50.94667800;7.08448400;2023-05-10T12:01:00;20.60;99.90
17333;DHT22;8784;50.94667800;7.08448400;2023-05-10T12:03:28;20.70;99.90
17333;DHT22;8784;50.94667800;7.08448400;2023-05-10T12:05:56;20.70;99.90
17333;DHT22;8784;50.94667800;7.08448400;2023-05-10T12:08:25;20.70;99.90
17333;DHT22;8784;50.94667800;7.08448400;2023-05-10T12:11:03;20.60;99.90
17333;DHT22;8784;50.94667800;7.08448400;2023-05-10T12:13:30;20.50;99.90
17333;DHT22;8784;50.94667800;7.08448400;2023-05-10T12:15:57;20.30;99.90
17333;DHT22;8784;50.94667800;7.08448400;2023-05-10T12:18:25;20.00;99.90
17333;DHT22;8784;50.94667800;7.08448400;2023-05-10T12:20:52;19.80;99.90
17333;DHT22;8784;50.94667800;7.08448400;2023-05-10T12:23:20;19.80;99.90
17333;DHT22;8784;50.94667800;7.08448400;2023-05-10T12:25:47;19.90;99.90
17333;DHT22;8784;50.94667800;7.08448400;2023-05-10T12:28:19;20.10;99.90
17333;DHT22;8784;50.94667800;7.08448400;2023-05-10T12:30:49;20.30;99.90
17333;DHT22;8784;50.94667800;7.08448400;2023-05-10T12:33:19;20.70;99.90
17333;DHT22;8784;50.94667800;7.08448400;2023-05-10T12:35:47;20.90;99.90
17333;DHT22;8784;50.94667800;7.08448400;2023-05-10T12:38:28;21.20;99.90
17333;DHT22;8784;50.94667800;7.08448400;2023-05-10T12:40:57;21.50;99.90
17333;DHT22;8784;50.94667800;7.08448400;2023-05-10T12:43:25;21.80;99.90
17333;DHT22;8784;50.94667800;7.08448400;2023-05-10T12:45:53;21.90;99.90
17333;DHT22;8784;50.94667800;7.08448400;2023-05-10T12:48:20;22.00;99.90
17333;DHT22;8784;50.94667800;7.08448400;2023-05-10T12:50:47;22.10;99.90
17333;DHT22;8784;50.94667800;7.08448400;2023-05-10T12:53:14;22.10;99.90
17333;DHT22;8784;50.94667800;7.08448400;2023-05-10T12:55:41;22.10;99.90
17333;DHT22;8784;50.94667800;7.08448400;2023-05-10T12:58:09;22.00;99.90
17333;DHT22;8784;50.94667800;7.08448400;2023-05-10T13:00:37;21.90;99.90
17333;DHT22;8784;50.94667800;7.08448400;2023-05-10T13:03:04;21.70;99.90
17333;DHT22;8784;50.94667800;7.08448400;2023-05-10T13:05:31;21.50;99.90
17333;DHT22;8784;50.94667800;7.08448400;2023-05-10T13:07:58;21.40;99.90
17333;DHT22;8784;50.94667800;7.08448400;2023-05-10T13:10:25;21.40;99.90
17333;DHT22;8784;50.94667800;7.08448400;2023-05-10T13:12:52;21.40;99.90
17333;DHT22;8784;50.94667800;7.08448400;2023-05-10T13:15:19;21.40;99.90
17333;DHT22;8784;50.94667800;7.08448400;2023-05-10T13:17:47;21.40;99.90
17333;DHT22;8784;50.94667800;7.08448400;2023-05-10T13:20:14;21.50;99.90
17333;DHT22;8784;50.94667800;7.08448400;2023-05-10T13:22:42;21.50;99.90
17333;DHT22;8784;50.94667800;7.08448400;2023-05-10T13:25:09;21.50;99.90
17333;DHT22;8784;50.94667800;7.08448400;2023-05-10T13:27:37;21.50;99.90
17333;DHT22;8784;50.94667800;7.08448400;2023-05-10T13:30:05;21.50;99.90
17333;DHT22;8784;50.94667800;7.08448400;2023-05-10T13:32:33;21.60;99.90
17333;DHT22;8784;50.94667800;7.08448400;2023-05-10T13:35:01;21.80;99.90
17333;DHT22;8784;50.94667800;7.08448400;2023-05-10T13:37:29;21.80;99.90
17333;DHT22;8784;50.94667800;7.08448400;2023-05-10T13:39:56;21.80;99.90
17333;DHT22;8784;50.94667800;7.08448400;2023-05-10T13:42:23;21.70;99.90
17333;DHT22;8784;50.94667800;7.08448400;2023-05-10T13:44:50;21.60;99.90
17333;DHT22;8784;50.94667800;7.08448400;2023-05-10T13:47:17;21.50;99.90